METAR Data
IDs: Format: Raw Decoded Include TAF

Data at: 0242 UTC 29 Nov 2020

METAR for:KMIW (Marshalltown Muni, IA, US)
Text:KMIW 290153Z AUTO 22008KT 10SM CLR 04/01 A2999 RMK AO2 SLP163 T00390006
Temperature: 3.9°C ( 39°F)
Dewpoint: 0.6°C ( 33°F) [RH = 79%]
Pressure (altimeter):29.99 inches Hg (1015.7 mb) [Sea level pressure: 1016.3 mb]
Winds:from the SW (220 degrees) at 9 MPH (8 knots; 4.1 m/s)
Visibility:10 or more sm (16+ km)
Ceiling:at least 12,000 feet AGL
Clouds:sky clear below 12,000 feet AGL
QC Flag:automated observation with no human augmentation